Time;durP1;ratioP1;P1;durP2;ratioP2;P2;SDS_P1;SDS_P2;PMS_P1;PMS_P2;Temp;Humidity;BMP_temperature;BMP_pressure;BME280_temperature;BME280_humidity;BME280_pressure;Samples;Min_cycle;Max_cycle;Signal;HPM_P1;HPM_P2
2023/05/15 00:01:56;;;;;;;5.40;4.20;;;;;;;14.88;52.01;99836.45;131250;1257;107503;-73
2023/05/15 00:05:01;;;;;;;5.00;3.80;;;;;;;14.86;52.07;99832.72;131292;1254;108122;-73
2023/05/15 00:08:07;;;;;;;4.10;3.70;;;;;;;14.87;51.90;99827.96;131442;1254;107547;-73
2023/05/15 00:11:13;;;;;;;5.00;4.00;;;;;;;14.86;51.95;99822.52;131097;1264;107585;-73
2023/05/15 00:14:18;;;;;;;5.40;4.30;;;;;;;14.86;51.87;99822.11;131211;1254;107428;-73
2023/05/15 00:17:25;;;;;;;4.80;4.10;;;;;;;14.86;52.45;99824.98;131236;1256;107522;-73
2023/05/15 00:20:31;;;;;;;6.50;4.00;;;;;;;14.85;52.59;99827.00;131024;1261;107249;-73
2023/05/15 00:23:36;;;;;;;4.40;3.90;;;;;;;14.83;52.98;99824.52;131028;1251;107501;-73
2023/05/15 00:26:42;;;;;;;5.80;4.10;;;;;;;14.81;52.91;99829.65;130957;1255;107534;-73
2023/05/15 00:29:48;;;;;;;4.70;3.70;;;;;;;14.78;52.57;99833.71;131000;1251;107377;-73
2023/05/15 00:32:54;;;;;;;5.30;4.20;;;;;;;14.76;52.95;99832.41;131067;1256;106554;-73
2023/05/15 00:35:59;;;;;;;4.70;3.50;;;;;;;14.73;53.33;99832.41;131019;1262;107546;-73
2023/05/15 00:39:05;;;;;;;7.20;4.20;;;;;;;14.71;53.06;99823.35;131087;1251;107542;-73
2023/05/15 00:42:11;;;;;;;5.70;4.40;;;;;;;14.70;53.35;99801.96;131071;1267;107377;-73
2023/05/15 00:45:16;;;;;;;6.30;4.20;;;;;;;14.69;53.28;99801.06;131288;1267;107184;-73
2023/05/15 00:48:24;;;;;;;5.70;4.10;;;;;;;14.68;53.42;99799.77;131366;1257;107551;-73
2023/05/15 00:51:29;;;;;;;6.70;4.20;;;;;;;14.66;53.65;99797.14;131337;1254;107666;-73
2023/05/15 00:54:35;;;;;;;6.10;4.20;;;;;;;14.61;53.90;99790.90;131354;1253;107505;-73
2023/05/15 00:57:44;;;;;;;4.50;4.10;;;;;;;14.58;54.04;99782.38;131149;1251;107369;-73
2023/05/15 01:00:50;;;;;;;4.70;4.10;;;;;;;14.52;54.06;99774.54;131333;1251;107527;-73
2023/05/15 01:03:55;;;;;;;5.70;4.10;;;;;;;14.50;54.32;99765.23;131114;1255;106432;-74
2023/05/15 01:07:01;;;;;;;5.10;4.30;;;;;;;14.48;54.42;99761.29;130941;1265;107632;-73
2023/05/15 01:10:09;;;;;;;5.00;4.50;;;;;;;14.46;54.40;99756.92;131093;1263;107552;-73
2023/05/15 01:13:15;;;;;;;6.40;4.40;;;;;;;14.44;54.45;99756.98;130872;1251;107511;-74
2023/05/15 01:16:22;;;;;;;5.30;4.70;;;;;;;14.43;54.64;99754.25;130913;1253;107662;-75
2023/05/15 01:19:27;;;;;;;4.90;4.10;;;;;;;14.42;54.81;99747.80;130824;1254;107544;-75
2023/05/15 01:22:47;;;;;;;7.40;4.30;;;;;;;14.41;55.27;99744.83;131043;1252;107505;-75
2023/05/15 01:26:18;;;;;;;5.50;4.40;;;;;;;14.39;55.26;99750.28;130984;1260;107352;-74
2023/05/15 01:29:27;;;;;;;4.60;4.10;;;;;;;14.38;55.28;99755.07;130998;1263;107161;-74
2023/05/15 01:32:39;;;;;;;6.80;4.80;;;;;;;14.37;55.20;99752.34;131043;1254;107523;-74
2023/05/15 01:35:49;;;;;;;5.70;4.40;;;;;;;14.34;55.30;99760.70;131100;1254;145498;-74
2023/05/15 01:38:58;;;;;;;7.30;4.40;;;;;;;14.34;55.32;99769.72;131165;1255;107442;-74
2023/05/15 01:42:09;;;;;;;6.20;4.20;;;;;;;14.34;55.38;99761.80;130946;1257;107261;-74
2023/05/15 01:45:16;;;;;;;5.00;4.30;;;;;;;14.34;55.17;99745.73;131145;1264;107445;-74
2023/05/15 01:48:23;;;;;;;7.10;4.70;;;;;;;14.34;55.04;99742.97;131049;1257;107629;-74
2023/05/15 01:51:31;;;;;;;6.30;4.30;;;;;;;14.36;55.36;99741.17;131084;1258;106647;-73
2023/05/15 01:54:39;;;;;;;6.00;4.30;;;;;;;14.35;55.61;99734.63;131087;1256;107516;-73
2023/05/15 01:57:47;;;;;;;5.30;4.60;;;;;;;14.35;55.66;99735.20;131067;1253;107397;-73
2023/05/15 02:00:53;;;;;;;7.00;4.30;;;;;;;14.35;55.84;99724.64;130978;1257;107254;-73
2023/05/15 02:03:59;;;;;;;6.90;5.10;;;;;;;14.36;55.67;99719.71;131007;1260;107522;-73
2023/05/15 02:07:06;;;;;;;6.00;4.40;;;;;;;14.35;55.91;99708.88;130879;1257;107445;-73
2023/05/15 02:10:14;;;;;;;6.60;4.30;;;;;;;14.34;56.05;99700.19;131028;1253;107450;-73
2023/05/15 02:13:26;;;;;;;5.90;4.30;;;;;;;14.35;56.15;99688.84;131115;1254;107281;-73
2023/05/15 02:16:32;;;;;;;6.00;4.70;;;;;;;14.37;55.76;99685.11;131318;1257;107373;-75
2023/05/15 02:19:37;;;;;;;5.40;4.80;;;;;;;14.38;55.81;99681.70;131121;1251;106534;-73
2023/05/15 02:22:42;;;;;;;6.10;5.30;;;;;;;14.37;55.95;99677.13;131142;1254;107506;-73
2023/05/15 02:26:00;;;;;;;5.90;4.70;;;;;;;14.38;56.35;99668.35;130887;1251;107240;-73
2023/05/15 02:29:16;;;;;;;5.60;4.70;;;;;;;14.37;56.50;99666.77;131216;1264;107443;-73
2023/05/15 02:32:31;;;;;;;5.30;4.50;;;;;;;14.36;56.28;99666.58;131262;1258;107476;-75
2023/05/15 02:35:45;;;;;;;5.40;4.90;;;;;;;14.35;56.85;99663.49;131190;1257;107527;-74
2023/05/15 02:38:53;;;;;;;6.60;5.00;;;;;;;14.34;57.01;99658.16;131015;1257;107355;-75
2023/05/15 02:42:01;;;;;;;6.50;5.50;;;;;;;14.34;57.00;99654.40;131052;1254;107422;-75
2023/05/15 02:45:10;;;;;;;5.80;4.90;;;;;;;14.36;56.55;99651.19;131081;1254;107488;-75
2023/05/15 02:48:16;;;;;;;7.50;4.90;;;;;;;14.36;57.17;99641.52;131208;1264;107547;-74
2023/05/15 02:51:21;;;;;;;7.20;4.90;;;;;;;14.34;57.41;99632.96;131308;1251;107390;-73
2023/05/15 02:54:27;;;;;;;5.90;5.30;;;;;;;14.33;58.12;99624.83;133685;1250;107554;-75
2023/05/15 02:57:32;;;;;;;9.30;5.50;;;;;;;14.30;58.25;99616.33;135234;1250;105927;-75
2023/05/15 03:00:38;;;;;;;6.90;5.80;;;;;;;14.26;58.85;99605.40;135156;1250;107248;-75
2023/05/15 03:03:43;;;;;;;12.60;7.60;;;;;;;14.21;59.20;99599.20;132460;1256;107365;-74
2023/05/15 03:06:49;;;;;;;9.00;5.30;;;;;;;14.14;59.02;99597.58;131216;1255;107266;-73
2023/05/15 03:09:55;;;;;;;9.70;6.00;;;;;;;14.13;59.40;99588.86;131193;1254;107578;-73
2023/05/15 03:13:00;;;;;;;10.80;5.80;;;;;;;14.18;59.41;99584.45;131249;1253;107410;-73
2023/05/15 03:16:07;;;;;;;8.10;6.50;;;;;;;14.23;59.62;99587.46;130952;1264;108141;-72
2023/05/15 03:19:12;;;;;;;8.40;5.90;;;;;;;14.31;59.61;99591.33;130873;1254;107545;-72
2023/05/15 03:22:18;;;;;;;8.40;6.00;;;;;;;14.31;59.78;99591.65;130873;1257;107324;-72
2023/05/15 03:25:24;;;;;;;8.00;6.00;;;;;;;14.32;60.06;99594.02;131003;1255;107356;-72
2023/05/15 03:28:29;;;;;;;7.10;6.20;;;;;;;14.30;60.44;99594.09;130998;1255;107966;-72
2023/05/15 03:31:35;;;;;;;6.10;5.50;;;;;;;14.25;60.61;99587.29;131064;1251;107324;-74
2023/05/15 03:34:41;;;;;;;8.60;6.20;;;;;;;14.24;60.92;99584.90;131019;1251;107272;-73
2023/05/15 03:37:46;;;;;;;10.10;6.90;;;;;;;14.23;61.01;99588.54;131050;1256;107509;-74
2023/05/15 03:40:51;;;;;;;9.60;7.20;;;;;;;14.18;61.33;99582.23;130970;1251;107261;-73
2023/05/15 03:43:57;;;;;;;6.70;5.60;;;;;;;14.15;61.66;99584.22;130911;1251;107531;-73
2023/05/15 03:47:02;;;;;;;7.30;5.80;;;;;;;14.10;61.85;99570.79;131016;1254;107260;-74
2023/05/15 03:50:09;;;;;;;10.10;6.00;;;;;;;14.10;61.75;99573.32;130788;1256;106494;-73
2023/05/15 03:53:15;;;;;;;8.30;6.50;;;;;;;14.16;62.08;99570.89;131035;1256;107337;-73
2023/05/15 03:56:20;;;;;;;7.20;5.90;;;;;;;14.21;62.23;99571.91;130992;1255;107442;-72
2023/05/15 03:59:26;;;;;;;8.60;6.20;;;;;;;14.25;62.28;99564.11;130957;1253;106531;-73
2023/05/15 04:02:32;;;;;;;7.10;6.20;;;;;;;14.25;62.30;99562.01;131103;1254;107321;-73
2023/05/15 04:05:37;;;;;;;6.20;5.60;;;;;;;14.21;62.76;99553.93;131212;1251;107124;-73
2023/05/15 04:08:43;;;;;;;9.70;6.80;;;;;;;14.19;62.76;99548.45;130952;1253;107606;-73
2023/05/15 04:11:48;;;;;;;11.00;7.30;;;;;;;14.17;62.80;99545.17;130860;1255;107349;-73
2023/05/15 04:14:53;;;;;;;8.90;7.30;;;;;;;14.16;63.07;99541.50;131082;1255;107520;-73
2023/05/15 04:17:59;;;;;;;9.50;6.30;;;;;;;14.14;63.52;99536.52;131252;1254;107573;-73
2023/05/15 04:21:05;;;;;;;7.40;6.00;;;;;;;14.10;64.07;99528.13;131183;1255;106585;-73
2023/05/15 04:24:10;;;;;;;6.90;6.20;;;;;;;14.05;64.10;99533.27;131221;1253;107294;-73
2023/05/15 04:27:16;;;;;;;7.20;6.40;;;;;;;14.11;64.01;99544.42;131021;1251;107231;-73
2023/05/15 04:30:21;;;;;;;6.80;6.10;;;;;;;14.19;64.21;99553.53;131060;1255;107473;-73
2023/05/15 04:33:27;;;;;;;8.80;6.40;;;;;;;14.24;64.34;99571.81;131263;1254;107495;-73
2023/05/15 04:36:33;;;;;;;10.00;6.80;;;;;;;14.25;64.42;99575.09;131015;1254;105667;-73
2023/05/15 04:39:38;;;;;;;8.20;6.60;;;;;;;14.19;64.42;99581.60;131033;1251;107533;-74
2023/05/15 04:42:43;;;;;;;11.20;9.10;;;;;;;14.14;64.22;99577.34;131058;1254;106495;-73
2023/05/15 04:45:49;;;;;;;19.50;16.50;;;;;;;14.13;64.30;99571.73;131036;1254;107249;-73
2023/05/15 04:48:54;;;;;;;27.00;15.30;;;;;;;14.10;64.19;99566.75;131011;1254;107501;-73
2023/05/15 04:52:00;;;;;;;32.80;16.80;;;;;;;14.11;64.44;99558.79;131150;1251;108098;-73
2023/05/15 04:55:07;;;;;;;17.90;10.00;;;;;;;14.10;64.61;99546.36;131160;1250;107507;-73
2023/05/15 04:58:13;;;;;;;10.80;7.10;;;;;;;14.07;64.44;99532.93;131203;1264;107516;-73
2023/05/15 05:01:19;;;;;;;9.40;6.10;;;;;;;14.09;64.49;99526.17;131241;1254;106443;-74
2023/05/15 05:04:25;;;;;;;8.20;6.40;;;;;;;14.11;64.77;99515.58;131141;1250;107351;-73
2023/05/15 05:07:30;;;;;;;9.20;6.60;;;;;;;14.20;64.60;99511.93;131020;1254;109235;-74
2023/05/15 05:10:36;;;;;;;8.80;6.70;;;;;;;14.23;64.79;99505.02;131012;1263;107507;-74
2023/05/15 05:13:41;;;;;;;7.90;6.40;;;;;;;14.23;64.54;99502.23;130949;1254;107506;-74
2023/05/15 05:16:47;;;;;;;9.70;6.50;;;;;;;14.25;65.05;99501.42;131004;1263;107529;-74
2023/05/15 05:19:52;;;;;;;10.70;7.30;;;;;;;14.26;65.36;99502.02;131083;1255;105456;-73
2023/05/15 05:22:58;;;;;;;8.50;6.70;;;;;;;14.29;65.43;99508.50;130962;1254;107604;-73
2023/05/15 05:26:03;;;;;;;7.30;6.00;;;;;;;14.30;65.55;99504.34;131167;1256;108113;-73
2023/05/15 05:29:09;;;;;;;10.00;6.20;;;;;;;14.33;65.69;99498.40;131106;1251;107542;-73
2023/05/15 05:32:15;;;;;;;10.40;7.30;;;;;;;14.37;65.51;99502.40;131096;1254;107300;-74
2023/05/15 05:35:20;;;;;;;12.00;7.10;;;;;;;14.38;65.44;99501.88;131078;1256;107299;-73
2023/05/15 05:38:26;;;;;;;10.40;7.50;;;;;;;14.39;65.26;99502.31;131042;1257;107393;-73
2023/05/15 05:41:32;;;;;;;8.90;7.00;;;;;;;14.36;65.27;99504.16;130963;1254;107386;-73
2023/05/15 05:44:37;;;;;;;9.80;7.30;;;;;;;14.32;65.50;99509.00;131074;1251;107540;-73
2023/05/15 05:47:43;;;;;;;8.10;7.20;;;;;;;14.27;66.02;99516.83;131117;1255;107561;-73
2023/05/15 05:50:48;;;;;;;9.30;7.30;;;;;;;14.21;66.10;99519.83;131016;1256;108657;-73
2023/05/15 05:53:54;;;;;;;11.00;7.10;;;;;;;14.14;66.30;99522.95;131072;1263;106374;-73
2023/05/15 05:56:59;;;;;;;8.00;6.80;;;;;;;14.07;66.17;99517.78;130986;1254;107550;-73
2023/05/15 06:00:07;;;;;;;8.40;6.10;;;;;;;14.02;66.07;99517.14;130948;1250;107517;-73
2023/05/15 06:03:14;;;;;;;7.70;5.90;;;;;;;13.95;66.37;99518.70;131002;1254;107505;-73
2023/05/15 06:06:20;;;;;;;9.20;6.00;;;;;;;13.91;66.60;99513.23;130954;1254;106997;-73
2023/05/15 06:09:26;;;;;;;8.00;6.90;;;;;;;13.90;66.67;99508.27;131013;1255;106852;-73
2023/05/15 06:12:32;;;;;;;9.50;6.30;;;;;;;13.91;66.83;99503.94;131040;1256;107368;-73
2023/05/15 06:15:37;;;;;;;11.40;6.60;;;;;;;13.90;66.78;99504.17;131128;1254;107549;-73
2023/05/15 06:18:43;;;;;;;7.80;6.80;;;;;;;13.90;66.87;99497.05;130973;1254;107665;-72
2023/05/15 06:21:48;;;;;;;10.00;7.30;;;;;;;13.93;67.10;99485.20;131179;1251;107524;-73
2023/05/15 06:24:54;;;;;;;8.50;6.60;;;;;;;14.01;66.99;99480.50;131007;1254;107234;-73
2023/05/15 06:27:59;;;;;;;8.20;7.10;;;;;;;14.06;67.12;99466.80;131010;1253;107543;-72
2023/05/15 06:31:05;;;;;;;9.60;6.40;;;;;;;14.12;67.26;99464.20;131028;1257;107534;-72
2023/05/15 06:34:11;;;;;;;8.20;6.50;;;;;;;14.16;67.39;99458.86;130967;1251;107560;-73
2023/05/15 06:37:16;;;;;;;8.90;6.40;;;;;;;14.19;67.81;99460.08;131024;1251;107432;-73
2023/05/15 06:40:22;;;;;;;14.10;8.80;;;;;;;14.22;67.83;99457.08;131078;1254;107382;-73
2023/05/15 06:43:27;;;;;;;13.50;8.90;;;;;;;14.27;67.50;99452.83;131016;1254;107369;-73
2023/05/15 06:46:32;;;;;;;15.30;9.60;;;;;;;14.36;67.52;99445.95;130918;1254;107548;-74
2023/05/15 06:49:38;;;;;;;15.90;9.30;;;;;;;14.42;67.63;99447.55;131156;1253;108478;-73
2023/05/15 06:52:43;;;;;;;16.20;9.70;;;;;;;14.42;67.44;99442.43;131160;1253;107518;-73
2023/05/15 06:55:49;;;;;;;14.30;8.80;;;;;;;14.38;67.68;99445.20;131064;1254;107403;-73
2023/05/15 06:58:55;;;;;;;15.50;9.60;;;;;;;14.34;67.78;99438.39;131021;1254;107505;-73
2023/05/15 07:02:00;;;;;;;14.10;9.00;;;;;;;14.33;67.92;99435.73;131089;1253;107547;-73
2023/05/15 07:05:07;;;;;;;12.10;8.10;;;;;;;14.34;68.00;99434.25;131245;1251;106751;-73
2023/05/15 07:08:13;;;;;;;8.30;6.80;;;;;;;14.36;67.95;99427.77;131075;1256;107520;-73
2023/05/15 07:11:18;;;;;;;10.40;6.30;;;;;;;14.35;68.13;99426.74;131088;1256;107529;-73
2023/05/15 07:14:23;;;;;;;6.50;5.70;;;;;;;14.31;68.46;99419.16;131288;1256;107539;-73
2023/05/15 07:17:31;;;;;;;8.50;6.10;;;;;;;14.29;68.38;99417.28;131046;1256;107401;-73
2023/05/15 07:20:37;;;;;;;7.60;6.20;;;;;;;14.33;68.56;99414.35;131083;1251;108185;-73
2023/05/15 07:23:42;;;;;;;7.60;6.70;;;;;;;14.41;68.45;99415.09;131007;1255;107484;-73
2023/05/15 07:26:48;;;;;;;8.10;6.50;;;;;;;14.45;68.70;99411.52;130946;1251;107440;-73
2023/05/15 07:29:54;;;;;;;7.00;6.30;;;;;;;14.52;68.82;99405.73;130986;1251;107540;-73
2023/05/15 07:33:00;;;;;;;8.20;6.80;;;;;;;14.59;68.81;99398.11;131002;1254;106720;-73
2023/05/15 07:36:06;;;;;;;9.00;6.70;;;;;;;14.65;68.98;99399.48;131038;1254;107543;-73
2023/05/15 07:39:12;;;;;;;8.60;6.30;;;;;;;14.63;68.88;99396.46;131000;1256;107241;-73
2023/05/15 07:42:17;;;;;;;7.70;5.80;;;;;;;14.61;69.39;99395.30;131025;1256;107252;-73
2023/05/15 07:45:23;;;;;;;9.20;6.50;;;;;;;14.64;69.25;99391.02;131090;1256;107524;-73
2023/05/15 07:48:28;;;;;;;8.10;6.10;;;;;;;14.66;69.28;99389.80;130984;1251;107545;-73
2023/05/15 07:51:34;;;;;;;7.50;5.90;;;;;;;14.66;69.52;99387.72;131137;1251;107283;-73
2023/05/15 07:54:40;;;;;;;7.20;5.90;;;;;;;14.66;69.66;99381.20;131071;1253;107459;-73
2023/05/15 07:57:46;;;;;;;9.80;7.20;;;;;;;14.64;69.62;99382.06;130966;1251;107244;-73
2023/05/15 08:00:51;;;;;;;8.10;5.90;;;;;;;14.63;69.76;99375.52;130938;1253;107522;-73
2023/05/15 08:03:57;;;;;;;8.40;6.50;;;;;;;14.69;69.77;99366.86;131014;1253;107457;-73
2023/05/15 08:07:03;;;;;;;8.80;6.50;;;;;;;14.74;69.99;99359.58;130967;1253;107561;-73
2023/05/15 08:10:10;;;;;;;8.40;6.20;;;;;;;14.74;70.19;99355.85;131091;1254;107391;-75
2023/05/15 08:13:15;;;;;;;8.70;6.50;;;;;;;14.67;70.22;99358.02;131113;1256;106538;-73
2023/05/15 08:16:21;;;;;;;9.80;7.90;;;;;;;14.62;70.37;99353.80;130936;1256;107477;-74
2023/05/15 08:19:26;;;;;;;11.00;8.10;;;;;;;14.61;70.39;99356.73;131067;1264;107504;-73
2023/05/15 08:22:32;;;;;;;8.80;7.10;;;;;;;14.58;70.82;99359.98;130984;1251;107540;-74
2023/05/15 08:25:37;;;;;;;9.10;7.40;;;;;;;14.50;70.88;99361.23;131038;1255;107503;-73
2023/05/15 08:28:43;;;;;;;8.10;7.20;;;;;;;14.47;70.89;99358.46;131042;1255;107435;-74
2023/05/15 08:31:48;;;;;;;8.20;6.50;;;;;;;14.46;71.25;99353.42;130965;1251;107425;-74
2023/05/15 08:34:54;;;;;;;6.90;6.20;;;;;;;14.45;71.12;99350.85;131066;1256;107378;-74
2023/05/15 08:38:00;;;;;;;7.60;6.70;;;;;;;14.45;71.56;99353.88;131026;1250;107542;-73
2023/05/15 08:41:14;;;;;;;11.00;6.70;;;;;;;14.47;71.38;99349.41;131030;1254;106681;-73
2023/05/15 08:44:21;;;;;;;10.80;6.90;;;;;;;14.56;71.61;99345.09;130990;1253;107386;-73
2023/05/15 08:47:28;;;;;;;9.50;7.00;;;;;;;14.70;71.55;99339.73;131044;1256;106413;-73
2023/05/15 08:50:34;;;;;;;8.10;6.20;;;;;;;14.76;71.49;99344.55;131163;1253;107259;-73
2023/05/15 08:53:39;;;;;;;8.10;6.30;;;;;;;14.77;71.87;99337.64;130943;1256;107542;-74
2023/05/15 08:56:45;;;;;;;7.10;6.40;;;;;;;14.75;71.70;99342.43;131040;1254;107525;-73
2023/05/15 08:59:51;;;;;;;6.90;5.80;;;;;;;14.71;72.11;99342.30;130967;1250;107438;-73
2023/05/15 09:02:59;;;;;;;6.40;5.60;;;;;;;14.68;72.15;99338.70;131065;1251;107544;-73
2023/05/15 09:06:05;;;;;;;6.40;5.50;;;;;;;14.71;72.50;99338.16;131007;1254;107529;-74
2023/05/15 09:09:12;;;;;;;7.20;6.30;;;;;;;14.70;72.49;99338.98;131050;1254;106807;-73
2023/05/15 09:12:19;;;;;;;6.90;6.00;;;;;;;14.72;72.56;99336.55;131040;1254;107295;-73
2023/05/15 09:15:27;;;;;;;7.10;5.80;;;;;;;14.71;72.54;99337.10;131039;1254;107369;-73
2023/05/15 09:18:33;;;;;;;7.80;6.10;;;;;;;14.75;72.83;99333.97;130994;1254;107487;-73
2023/05/15 09:21:39;;;;;;;7.40;5.70;;;;;;;14.74;72.78;99329.30;131110;1251;107568;-74
2023/05/15 09:24:46;;;;;;;5.80;5.20;;;;;;;14.76;73.02;99329.54;130970;1250;107545;-73
2023/05/15 09:27:52;;;;;;;6.60;5.90;;;;;;;14.77;73.39;99325.09;131005;1253;107371;-73
2023/05/15 09:31:03;;;;;;;7.70;5.90;;;;;;;14.79;73.15;99331.25;130954;1256;107504;-73
2023/05/15 09:34:09;;;;;;;6.70;5.80;;;;;;;14.86;73.50;99331.52;131081;1256;107247;-74
2023/05/15 09:37:31;;;;;;;6.30;5.40;;;;;;;14.90;73.21;99325.45;131182;1253;107536;-73
2023/05/15 09:40:36;;;;;;;6.10;5.20;;;;;;;14.91;73.50;99319.45;131177;1253;107512;-74
2023/05/15 09:43:42;;;;;;;6.30;5.60;;;;;;;14.87;73.34;99320.60;131131;1254;107492;-74
2023/05/15 09:46:48;;;;;;;7.60;6.00;;;;;;;14.82;73.93;99322.83;131338;1256;105475;-74
2023/05/15 09:49:54;;;;;;;7.00;5.10;;;;;;;14.79;74.12;99324.96;131296;1255;107560;-73
2023/05/15 09:53:01;;;;;;;5.80;5.20;;;;;;;14.79;73.88;99324.10;131026;1261;109376;-73
2023/05/15 09:56:09;;;;;;;7.40;5.70;;;;;;;14.79;74.09;99321.34;130973;1251;107658;-74
2023/05/15 09:59:18;;;;;;;6.40;5.60;;;;;;;14.85;73.95;99315.73;131129;1254;107534;-73
2023/05/15 10:02:30;;;;;;;5.80;5.30;;;;;;;14.87;73.87;99315.94;131116;1253;107493;-74
2023/05/15 10:05:37;;;;;;;6.60;5.80;;;;;;;14.88;74.25;99317.02;131062;1256;107583;-74
2023/05/15 10:08:50;;;;;;;8.20;5.40;;;;;;;14.84;74.58;99317.55;131189;1251;107459;-74
2023/05/15 10:11:57;;;;;;;6.90;5.40;;;;;;;14.77;74.83;99315.26;131087;1254;106683;-73
2023/05/15 10:15:04;;;;;;;6.80;5.30;;;;;;;14.74;74.64;99313.63;130994;1256;107496;-72
2023/05/15 10:18:10;;;;;;;8.50;6.40;;;;;;;14.78;74.87;99311.66;131054;1251;107629;-72
2023/05/15 10:21:19;;;;;;;8.10;6.70;;;;;;;14.80;74.72;99316.74;131029;1255;107535;-72
2023/05/15 10:24:28;;;;;;;10.80;7.80;;;;;;;14.82;74.76;99322.40;131033;1254;107382;-73
2023/05/15 10:27:36;;;;;;;10.00;8.10;;;;;;;14.82;74.84;99326.66;131193;1256;107529;-75
2023/05/15 10:30:42;;;;;;;11.20;7.70;;;;;;;14.82;74.81;99323.94;131115;1254;107489;-73
2023/05/15 10:33:50;;;;;;;7.80;6.20;;;;;;;14.93;75.08;99318.84;130954;1256;107512;-73
2023/05/15 10:36:56;;;;;;;9.00;6.40;;;;;;;15.07;75.07;99320.92;130970;1255;105924;-73
2023/05/15 10:40:03;;;;;;;6.90;6.00;;;;;;;15.16;74.72;99315.17;131104;1251;107270;-73
2023/05/15 10:43:11;;;;;;;7.80;5.70;;;;;;;15.21;74.74;99315.76;131142;1255;105720;-73
2023/05/15 10:46:17;;;;;;;7.50;6.40;;;;;;;15.25;74.82;99314.89;131169;1254;106566;-74
2023/05/15 10:49:23;;;;;;;7.30;6.50;;;;;;;15.31;74.83;99311.55;131300;1256;107550;-73
2023/05/15 10:52:31;;;;;;;6.30;5.70;;;;;;;15.33;75.04;99303.73;130980;1256;107502;-73
2023/05/15 10:55:37;;;;;;;5.50;4.90;;;;;;;15.26;75.05;99300.92;131040;1264;107520;-74
2023/05/15 10:58:47;;;;;;;6.60;5.10;;;;;;;15.23;75.15;99296.34;131178;1250;107531;-74
2023/05/15 11:01:53;;;;;;;5.90;5.30;;;;;;;15.24;75.23;99299.19;131176;1256;107507;-73
2023/05/15 11:05:00;;;;;;;6.10;5.40;;;;;;;15.25;75.52;99302.48;131150;1250;107261;-73
2023/05/15 11:08:26;;;;;;;5.70;5.10;;;;;;;15.26;75.27;99304.85;131019;1255;106531;-74
2023/05/15 11:11:56;;;;;;;7.20;5.50;;;;;;;15.31;75.66;99298.64;130998;1255;107416;-73
2023/05/15 11:15:21;;;;;;;6.10;5.10;;;;;;;15.35;75.52;99297.02;130960;1256;107359;-73
2023/05/15 11:18:27;;;;;;;5.10;4.50;;;;;;;15.29;75.60;99294.02;131017;1256;107508;-73
2023/05/15 11:21:44;;;;;;;4.70;4.10;;;;;;;15.30;75.64;99287.14;130967;1256;107366;-73
2023/05/15 11:24:52;;;;;;;4.50;4.10;;;;;;;15.33;76.15;99287.31;131028;1256;107356;-73
2023/05/15 11:27:58;;;;;;;4.90;4.00;;;;;;;15.34;76.13;99290.21;131137;1254;107545;-73
2023/05/15 11:31:08;;;;;;;5.40;4.10;;;;;;;15.43;76.24;99287.92;131191;1256;106662;-73
2023/05/15 11:34:14;;;;;;;6.20;4.50;;;;;;;15.51;75.96;99276.83;130999;1255;107448;-74
2023/05/15 11:37:20;;;;;;;5.10;4.10;;;;;;;15.55;76.17;99271.56;130874;1251;106690;-74
2023/05/15 11:40:28;;;;;;;4.50;4.10;;;;;;;15.55;76.21;99272.29;130919;1256;107557;-73
2023/05/15 11:43:35;;;;;;;4.50;3.80;;;;;;;15.55;76.42;99271.52;131030;1256;106011;-74
2023/05/15 11:46:42;;;;;;;4.60;3.60;;;;;;;15.59;76.41;99271.10;131035;1251;107528;-74
2023/05/15 11:49:49;;;;;;;5.00;4.50;;;;;;;15.63;76.41;99266.91;131346;1251;106709;-74
2023/05/15 11:52:55;;;;;;;5.00;4.00;;;;;;;15.85;76.71;99268.47;132437;1253;107602;-73
2023/05/15 11:56:01;;;;;;;4.10;3.70;;;;;;;16.13;76.78;99260.08;131120;1251;106553;-73
2023/05/15 11:59:07;;;;;;;4.20;3.80;;;;;;;16.44;76.92;99256.45;131027;1255;107376;-74
2023/05/15 12:02:12;;;;;;;3.90;3.40;;;;;;;16.69;76.58;99249.95;131048;1255;107614;-73
2023/05/15 12:05:17;;;;;;;3.70;3.10;;;;;;;16.85;76.42;99251.23;131166;1253;107582;-73
2023/05/15 12:08:23;;;;;;;3.90;3.40;;;;;;;17.04;76.30;99248.41;130992;1251;107536;-74
2023/05/15 12:11:30;;;;;;;3.90;3.50;;;;;;;17.16;76.34;99244.98;131064;1250;107541;-73
2023/05/15 12:14:36;;;;;;;3.60;3.30;;;;;;;17.32;76.36;99246.75;131074;1253;107383;-74
2023/05/15 12:17:45;;;;;;;4.60;4.20;;;;;;;17.43;76.16;99242.46;131227;1252;106755;-74
2023/05/15 12:20:53;;;;;;;4.60;4.20;;;;;;;17.63;76.16;99238.71;130940;1250;107287;-74
2023/05/15 12:23:59;;;;;;;4.20;3.80;;;;;;;17.82;75.92;99234.87;130997;1253;107517;-74
2023/05/15 12:27:05;;;;;;;3.70;3.40;;;;;;;17.91;75.94;99216.52;131055;1256;108077;-74
2023/05/15 12:30:13;;;;;;;3.90;3.60;;;;;;;18.03;75.65;99208.02;131046;1251;107257;-73
2023/05/15 12:33:19;;;;;;;4.80;3.90;;;;;;;18.09;75.66;99203.50;131135;1254;107357;-74
2023/05/15 12:36:28;;;;;;;4.30;3.90;;;;;;;18.21;75.51;99208.60;131193;1256;107563;-74
2023/05/15 12:39:34;;;;;;;3.90;3.50;;;;;;;18.23;75.06;99208.21;131185;1265;106387;-74
2023/05/15 12:42:44;;;;;;;5.50;3.90;;;;;;;18.16;75.19;99206.98;131073;1256;107652;-75
2023/05/15 12:45:53;;;;;;;4.20;3.80;;;;;;;18.13;75.14;99205.30;131232;1254;106023;-75
2023/05/15 12:49:00;;;;;;;4.20;3.80;;;;;;;18.12;75.23;99201.77;131083;1256;107979;-74
2023/05/15 12:52:12;;;;;;;4.50;4.00;;;;;;;18.17;75.40;99201.80;130916;1255;108115;-73
2023/05/15 12:55:22;;;;;;;4.10;3.70;;;;;;;18.17;75.33;99199.86;131088;1255;107387;-73
2023/05/15 12:58:28;;;;;;;4.90;3.90;;;;;;;18.13;75.19;99192.48;131081;1253;107498;-74
2023/05/15 13:01:34;;;;;;;5.90;4.10;;;;;;;18.05;75.20;99193.54;131163;1253;107513;-74
2023/05/15 13:04:39;;;;;;;4.90;4.40;;;;;;;17.99;74.94;99193.52;131199;1254;107961;-74
2023/05/15 13:07:45;;;;;;;5.00;4.50;;;;;;;17.98;75.06;99189.27;131246;1255;107548;-73
2023/05/15 13:10:58;;;;;;;5.40;4.90;;;;;;;18.05;75.24;99189.27;131104;1256;107467;-73
2023/05/15 13:14:15;;;;;;;5.20;4.70;;;;;;;18.32;75.42;99177.71;131269;1256;107461;-74
2023/05/15 13:17:23;;;;;;;7.10;4.90;;;;;;;18.56;75.15;99174.61;131070;1254;107365;-73
2023/05/15 13:20:31;;;;;;;6.10;4.70;;;;;;;18.73;74.99;99167.73;131226;1256;107639;-73
2023/05/15 13:23:37;;;;;;;5.60;4.90;;;;;;;18.82;74.78;99162.79;131379;1251;107558;-74
2023/05/15 13:26:42;;;;;;;5.10;4.40;;;;;;;18.99;74.81;99168.60;131142;1256;107663;-74
2023/05/15 13:29:48;;;;;;;4.60;4.10;;;;;;;19.12;74.66;99162.67;131172;1250;108210;-74
2023/05/15 13:32:58;;;;;;;6.10;5.30;;;;;;;19.06;74.46;99163.30;131212;1251;107341;-73
2023/05/15 13:36:10;;;;;;;5.60;4.90;;;;;;;19.02;74.67;99152.50;130952;1258;152213;-75
2023/05/15 13:39:16;;;;;;;5.60;4.60;;;;;;;19.04;74.62;99146.16;131060;1255;107762;-74
2023/05/15 13:42:22;;;;;;;5.70;4.70;;;;;;;19.01;74.60;99149.03;131267;1255;107233;-74
2023/05/15 13:45:27;;;;;;;5.00;4.50;;;;;;;18.98;74.40;99154.03;131142;1256;107588;-74
2023/05/15 13:48:33;;;;;;;7.20;5.10;;;;;;;18.99;74.24;99154.76;131027;1255;107542;-74
2023/05/15 13:51:38;;;;;;;5.80;5.00;;;;;;;18.99;74.29;99148.15;130960;1256;107612;-74
2023/05/15 13:54:44;;;;;;;5.20;4.70;;;;;;;18.94;74.28;99155.61;130968;1256;107229;-74
2023/05/15 13:57:50;;;;;;;6.00;5.40;;;;;;;18.80;74.21;99152.63;130938;1250;106571;-75
2023/05/15 14:00:55;;;;;;;5.50;5.00;;;;;;;18.58;74.10;99145.19;130971;1255;105848;-73
2023/05/15 14:04:01;;;;;;;7.90;6.20;;;;;;;18.33;74.21;99161.75;131120;1255;108666;-73
2023/05/15 14:07:07;;;;;;;8.20;7.00;;;;;;;18.13;74.61;99175.48;131169;1255;107481;-73
2023/05/15 14:10:13;;;;;;;7.10;6.00;;;;;;;18.05;74.93;99172.48;131258;1256;107521;-73
2023/05/15 14:13:18;;;;;;;7.40;5.90;;;;;;;18.05;75.04;99165.79;131219;1256;107513;-73
2023/05/15 14:16:24;;;;;;;6.40;5.80;;;;;;;18.08;74.87;99165.84;131211;1256;107509;-73
2023/05/15 14:19:29;;;;;;;6.80;5.60;;;;;;;17.97;74.81;99162.80;131366;1256;108670;-72